This is the latest recevied weather packets stored in our database for station/object E22ZMG-3. If no packets are shown the sender has not sent any weather packets the latest 10 day(s).
| Time | Temp. | Humidity | Pressure | Rain* | Wind** | Luminosity | Snow |
|---|---|---|---|---|---|---|---|
| 1778005770 | 31.67° C | 54% | 976 hPa | - | - | 0 W/m² | - |
| 1778005145 | 33.33° C | 51% | 976 hPa | - | - | 0 W/m² | - |
| 1778004521 | 32.78° C | 52% | 976 hPa | - | - | 0 W/m² | - |
| 1778002647 | 31.67° C | 54% | 976 hPa | - | - | 0 W/m² | - |
| 1778002022 | 32.78° C | 52% | 976 hPa | - | - | 0 W/m² | - |
| 1778001397 | 33.33° C | 50% | 976 hPa | - | - | 0 W/m² | - |
| 1777999524 | 32.78° C | 52% | 977 hPa | - | - | 0 W/m² | - |
| 1777998900 | 32.78° C | 51% | 977 hPa | - | - | 0 W/m² | - |
| 1777998275 | 33.33° C | 50% | 977 hPa | - | - | 0 W/m² | - |
| 1777997651 | 33.89° C | 48% | 977 hPa | - | - | 0 W/m² | - |
| 1777997025 | 33.33° C | 49% | 977 hPa | - | - | 0 W/m² | - |
| 1777995152 | 33.33° C | 50% | 977 hPa | - | - | 0 W/m² | - |
| 1777990780 | 35° C | 44% | 976 hPa | - | - | 0 W/m² | - |
| 1777990156 | 34.44° C | 46% | 976 hPa | - | - | 0 W/m² | - |
| 1777989532 | 35° C | 45% | 976 hPa | - | - | 0 W/m² | - |
| 1777988908 | 35° C | 45% | 975 hPa | - | - | 0 W/m² | - |
| 1777988283 | 35° C | 44% | 975 hPa | - | - | 0 W/m² | - |
| 1777987658 | 33.89° C | 46% | 975 hPa | - | - | 0 W/m² | - |
| 1777987034 | 33.89° C | 44% | 974 hPa | - | - | 0 W/m² | - |
| 1777984535 | 33.89° C | 42% | 974 hPa | - | - | 0 W/m² | - |
| 1777983911 | 33.89° C | 42% | 974 hPa | - | - | 0 W/m² | - |
| 1777982662 | 35.56° C | 41% | 974 hPa | - | - | 0 W/m² | - |
| 1777982037 | 35° C | 42% | 974 hPa | - | - | 0 W/m² | - |
| 1777980162 | 35.56° C | 41% | 973 hPa | - | - | 0 W/m² | - |
| 1777978914 | 37.22° C | 37% | 973 hPa | - | - | 0 W/m² | - |
* Rain since midnight (hover to see other rain measurements)
** Current wind speed in m/s (hover to see current wind gust speed)